Time;durP1;ratioP1;P1;durP2;ratioP2;P2;SDS_P1;SDS_P2;PMS_P1;PMS_P2;Temp;Humidity;BMP_temperature;BMP_pressure;BME280_temperature;BME280_humidity;BME280_pressure;Samples;Min_cycle;Max_cycle;Signal;HPM_P1;HPM_P2
2022/01/31 00:01:32;;;;;;;17.75;3.47;;;;;;;4.42;44.66;98426.00;4410031;32;20124;-86
2022/01/31 00:03:57;;;;;;;14.02;1.80;;;;;;;4.58;44.31;98461.97;4409913;32;20112;-87
2022/01/31 00:06:23;;;;;;;12.98;2.45;;;;;;;4.31;44.77;98405.53;4410124;32;20425;-89
2022/01/31 00:08:50;;;;;;;12.98;1.70;;;;;;;4.61;44.15;98434.03;4414926;32;20124;-85
2022/01/31 00:11:15;;;;;;;16.48;2.17;;;;;;;4.59;44.06;98440.22;4416243;32;20106;-82
2022/01/31 00:13:45;;;;;;;14.75;2.17;;;;;;;4.59;44.21;98440.22;4396406;32;20432;-82
2022/01/31 00:16:16;;;;;;;13.57;2.12;;;;;;;4.46;44.45;98443.28;4410636;32;20083;-93
2022/01/31 00:18:41;;;;;;;11.02;2.30;;;;;;;4.40;44.45;98453.06;4410887;32;20160;-95
2022/01/31 00:21:07;;;;;;;12.00;2.03;;;;;;;4.63;44.05;98455.69;4411269;32;20094;-93
2022/01/31 00:23:32;;;;;;;9.80;1.65;;;;;;;4.58;43.99;98470.69;4411095;32;20106;-94
2022/01/31 00:25:58;;;;;;;13.27;1.95;;;;;;;4.63;43.96;98475.72;4411120;32;20638;-91
2022/01/31 00:28:23;;;;;;;13.32;2.28;;;;;;;4.53;43.98;98481.25;4410071;32;20114;-94
2022/01/31 00:30:48;;;;;;;15.38;2.20;;;;;;;4.75;43.56;98483.09;4410178;32;20408;-90
2022/01/31 00:33:14;;;;;;;12.85;2.35;;;;;;;4.59;43.63;98501.06;4410388;32;20121;-88
2022/01/31 00:35:40;;;;;;;9.90;2.15;;;;;;;4.82;43.33;98481.16;4410578;32;20118;-90
2022/01/31 00:38:05;;;;;;;16.17;2.08;;;;;;;4.86;43.12;98482.72;4410593;32;20140;-91
2022/01/31 00:40:32;;;;;;;13.50;2.10;;;;;;;4.63;43.64;98494.00;4410392;32;20128;-88
2022/01/31 00:42:57;;;;;;;14.87;2.58;;;;;;;4.73;43.26;98474.47;4410357;32;20574;-87
2022/01/31 00:45:28;;;;;;;11.02;2.70;;;;;;;4.52;43.51;98468.28;4409637;32;20086;-87
2022/01/31 00:48:02;;;;;;;17.05;2.40;;;;;;;4.66;43.32;98471.25;4410309;32;20212;-86
2022/01/31 00:50:38;;;;;;;16.12;2.90;;;;;;;4.60;43.33;98457.59;4410349;32;20119;-87
2022/01/31 00:53:03;;;;;;;14.20;2.58;;;;;;;4.77;43.12;98454.34;4410636;32;20116;-87
2022/01/31 00:55:29;;;;;;;12.45;1.98;;;;;;;4.66;43.17;98445.16;4410510;32;20129;-87
2022/01/31 00:57:54;;;;;;;11.27;1.60;;;;;;;4.39;43.89;98439.19;4410079;32;20098;-86
2022/01/31 01:00:20;;;;;;;17.15;2.15;;;;;;;4.33;44.01;98421.97;4410184;32;20132;-86
2022/01/31 01:02:46;;;;;;;12.45;2.30;;;;;;;4.39;43.76;98426.13;4410192;32;20153;-87
2022/01/31 01:05:12;;;;;;;9.82;1.65;;;;;;;4.37;43.92;98430.56;4410276;32;20094;-87
2022/01/31 01:07:37;;;;;;;13.38;2.35;;;;;;;4.21;44.17;98418.94;4410265;32;20491;-87
2022/01/31 01:10:04;;;;;;;14.90;2.72;;;;;;;4.34;44.00;98428.03;4410239;32;20148;-87
2022/01/31 01:12:29;;;;;;;17.05;2.40;;;;;;;4.28;43.79;98423.03;4410124;32;20128;-87
2022/01/31 01:14:54;;;;;;;12.80;1.98;;;;;;;4.12;44.23;98433.16;4409995;32;20374;-87
2022/01/31 01:17:20;;;;;;;9.52;2.72;;;;;;;3.88;44.81;98437.44;4410016;32;20094;-86
2022/01/31 01:19:45;;;;;;;12.85;2.75;;;;;;;4.10;44.54;98429.75;4410296;32;20168;-86
2022/01/31 01:22:11;;;;;;;13.05;2.20;;;;;;;4.12;44.31;98422.72;4410287;32;20094;-86
2022/01/31 01:24:37;;;;;;;14.70;2.58;;;;;;;3.93;44.61;98432.94;4410411;32;20425;-87
2022/01/31 01:27:03;;;;;;;13.00;2.30;;;;;;;4.25;43.72;98437.06;4410399;32;20128;-86
2022/01/31 01:29:29;;;;;;;15.63;2.28;;;;;;;4.32;43.43;98420.25;4410223;32;20111;-87
2022/01/31 01:31:54;;;;;;;15.90;2.00;;;;;;;4.32;43.17;98432.47;4410155;32;20120;-87
2022/01/31 01:34:22;;;;;;;14.60;2.87;;;;;;;4.37;43.05;98438.37;4410253;32;20090;-86
2022/01/31 01:36:50;;;;;;;14.05;2.25;;;;;;;4.60;42.73;98449.75;4410005;32;20102;-87
2022/01/31 01:39:15;;;;;;;12.25;2.80;;;;;;;4.60;42.36;98444.53;4410027;32;20136;-87
2022/01/31 01:41:43;;;;;;;13.93;2.30;;;;;;;4.69;42.12;98429.41;4410035;32;20114;-87
2022/01/31 01:44:08;;;;;;;14.80;2.35;;;;;;;4.42;42.53;98432.97;4396170;32;20600;-86
2022/01/31 01:46:34;;;;;;;13.35;2.17;;;;;;;4.40;42.55;98438.25;4408754;32;20133;-87
2022/01/31 01:48:59;;;;;;;13.88;2.25;;;;;;;4.20;42.82;98443.31;4410030;32;20138;-86
2022/01/31 01:51:25;;;;;;;14.13;2.25;;;;;;;4.55;42.05;98417.75;4409902;32;20109;-86
2022/01/31 01:53:50;;;;;;;17.30;2.62;;;;;;;4.38;42.30;98423.56;4409831;32;20081;-84
2022/01/31 01:56:16;;;;;;;10.68;2.30;;;;;;;4.33;42.41;98424.59;4408774;32;20358;-90
2022/01/31 01:58:42;;;;;;;14.52;2.17;;;;;;;4.22;42.72;98410.22;4409685;32;20102;-88
2022/01/31 02:01:09;;;;;;;12.32;1.87;;;;;;;4.27;42.64;98401.34;4409966;32;20086;-89
2022/01/31 02:03:36;;;;;;;11.63;1.92;;;;;;;4.48;42.35;98420.59;4409992;32;20434;-89
2022/01/31 02:06:03;;;;;;;13.82;1.98;;;;;;;4.57;42.22;98419.41;4410091;32;20098;-89
2022/01/31 02:08:38;;;;;;;13.30;1.95;;;;;;;4.66;41.90;98424.28;4410158;32;20132;-89
2022/01/31 02:11:03;;;;;;;13.60;2.03;;;;;;;4.46;42.29;98411.09;4408950;32;20543;-89
2022/01/31 02:13:29;;;;;;;15.35;2.87;;;;;;;4.46;42.17;98419.81;4409993;32;20109;-89
2022/01/31 02:15:54;;;;;;;11.10;1.83;;;;;;;4.45;42.30;98398.97;4410082;32;20090;-89
2022/01/31 02:18:24;;;;;;;20.30;2.72;;;;;;;4.53;42.07;98412.59;4410078;32;20120;-88
2022/01/31 02:20:49;;;;;;;13.55;2.25;;;;;;;4.72;41.75;98423.22;4409874;32;20468;-88
2022/01/31 02:23:17;;;;;;;14.60;2.15;;;;;;;4.47;42.26;98424.09;4409853;32;20145;-88
2022/01/31 02:26:04;;;;;;;14.23;2.47;;;;;;;4.47;42.32;98420.66;4409905;32;20094;-89
2022/01/31 02:28:32;;;;;;;12.50;2.40;;;;;;;4.59;42.04;98420.19;4408820;32;20468;-90
2022/01/31 02:30:58;;;;;;;14.48;2.80;;;;;;;4.59;42.13;98430.63;4409580;32;20556;-89
2022/01/31 02:33:24;;;;;;;13.90;2.35;;;;;;;4.69;41.84;98424.19;4395696;32;20118;-88
2022/01/31 02:35:52;;;;;;;13.65;2.08;;;;;;;4.94;41.47;98410.22;4409558;32;20404;-87
2022/01/31 02:38:18;;;;;;;20.30;3.10;;;;;;;5.04;41.28;98403.75;4409641;32;20164;-89
2022/01/31 02:40:45;;;;;;;12.40;2.37;;;;;;;5.19;40.74;98401.44;4409572;32;20422;-88
2022/01/31 02:43:24;;;;;;;17.08;2.42;;;;;;;5.12;41.01;98409.53;4409498;32;20094;-89
2022/01/31 02:45:49;;;;;;;;;;;;;;;4.97;41.43;98401.44;4409842;32;20150;-89
2022/01/31 02:48:17;;;;;;;14.77;2.00;;;;;;;4.93;41.49;98382.41;4409525;32;19973;-87
2022/01/31 02:50:43;;;;;;;12.68;2.22;;;;;;;4.58;42.01;98376.78;4408108;32;20207;-88
2022/01/31 02:53:13;;;;;;;15.63;2.10;;;;;;;4.85;41.63;98380.09;4409324;32;20117;-89
2022/01/31 02:55:44;;;;;;;14.48;2.00;;;;;;;4.64;41.97;98362.66;4409358;32;20094;-87
2022/01/31 02:58:11;;;;;;;13.60;2.17;;;;;;;4.62;41.90;98367.06;4409246;32;20483;-88
2022/01/31 03:00:37;;;;;;;14.55;1.73;;;;;;;4.57;42.07;98374.22;4409323;32;20090;-87
2022/01/31 03:03:03;;;;;;;15.38;2.70;;;;;;;4.64;41.87;98373.09;4409188;32;20487;-87
2022/01/31 03:05:29;;;;;;;15.48;2.37;;;;;;;4.46;42.14;98362.41;4409240;32;20109;-89
2022/01/31 03:07:54;;;;;;;12.15;2.30;;;;;;;4.48;42.29;98363.22;4395014;32;20098;-88
2022/01/31 03:10:20;;;;;;;12.55;2.15;;;;;;;4.62;41.97;98361.84;4408806;32;20097;-88
2022/01/31 03:12:45;;;;;;;18.08;3.78;;;;;;;4.56;42.13;98347.28;4409333;32;20403;-87
2022/01/31 03:15:11;;;;;;;14.75;2.15;;;;;;;4.48;42.24;98359.72;4409074;32;20086;-87
2022/01/31 03:17:37;;;;;;;10.75;1.90;;;;;;;4.54;42.15;98346.50;4409223;32;20151;-87
2022/01/31 03:20:03;;;;;;;12.48;2.10;;;;;;;4.59;42.29;98360.19;4409313;32;20161;-87
2022/01/31 03:22:30;;;;;;;12.85;1.90;;;;;;;4.62;42.04;98361.84;4409132;32;20381;-86
2022/01/31 03:24:55;;;;;;;12.63;2.08;;;;;;;4.77;41.70;98349.97;4409263;32;20093;-87
2022/01/31 03:27:21;;;;;;;14.30;2.60;;;;;;;4.87;41.34;98346.13;4395259;32;20401;-89
2022/01/31 03:29:46;;;;;;;12.73;1.95;;;;;;;4.65;41.82;98362.56;4408931;32;20078;-86
2022/01/31 03:32:12;;;;;;;9.43;1.77;;;;;;;4.73;41.65;98354.44;4408989;32;20135;-87
2022/01/31 03:34:37;;;;;;;10.80;2.00;;;;;;;4.53;41.90;98348.22;4409157;32;20106;-87
2022/01/31 03:37:03;;;;;;;14.98;2.00;;;;;;;4.44;42.07;98348.59;4409087;32;20090;-90
2022/01/31 03:39:28;;;;;;;16.45;2.60;;;;;;;4.75;41.34;98329.16;4409100;32;20619;-89
2022/01/31 03:41:53;;;;;;;10.35;1.67;;;;;;;4.97;40.83;98334.41;4407799;32;20120;-89
2022/01/31 03:44:19;;;;;;;15.38;3.00;;;;;;;4.82;40.96;98338.44;4395131;32;20106;-89
2022/01/31 03:46:44;;;;;;;12.30;2.33;;;;;;;4.68;41.11;98354.63;4408816;32;20342;-89
2022/01/31 03:49:10;;;;;;;13.02;2.03;;;;;;;4.79;41.01;98350.75;4408896;32;20121;-89
2022/01/31 03:51:36;;;;;;;15.20;2.62;;;;;;;4.93;40.79;98359.78;4408744;32;20100;-89
2022/01/31 03:54:03;;;;;;;13.50;2.45;;;;;;;4.92;40.65;98355.47;4408738;32;20094;-89
2022/01/31 03:56:28;;;;;;;14.02;2.55;;;;;;;5.36;39.89;98352.00;4408802;32;20105;-88
2022/01/31 03:58:54;;;;;;;11.45;2.35;;;;;;;5.20;39.72;98328.28;4408576;32;20078;-91
2022/01/31 04:01:19;;;;;;;11.65;2.10;;;;;;;5.07;39.91;98337.50;4408756;32;20097;-90
2022/01/31 04:03:45;;;;;;;12.30;2.40;;;;;;;5.38;39.38;98337.13;4408714;32;20112;-89
2022/01/31 04:06:10;;;;;;;11.15;2.97;;;;;;;5.41;39.23;98347.44;4408697;32;20090;-89
2022/01/31 04:08:35;;;;;;;12.77;2.10;;;;;;;5.29;39.15;98320.06;4408601;32;20069;-90
2022/01/31 04:11:01;;;;;;;15.02;2.10;;;;;;;5.08;39.50;98326.13;4408554;32;20100;-90
2022/01/31 04:13:26;;;;;;;12.63;1.87;;;;;;;4.89;39.93;98318.19;4408533;32;20087;-91
2022/01/31 04:15:52;;;;;;;11.93;1.90;;;;;;;5.33;39.21;98318.16;4408602;32;20143;-90
2022/01/31 04:18:19;;;;;;;14.00;1.95;;;;;;;5.12;39.43;98318.13;4408496;32;20417;-90
2022/01/31 04:20:44;;;;;;;15.55;2.62;;;;;;;5.13;39.24;98301.53;4410221;32;20109;-91
2022/01/31 04:23:16;;;;;;;12.07;2.40;;;;;;;5.16;39.18;98295.38;4410732;32;20437;-89
2022/01/31 04:28:17;;;;;;;14.00;2.10;;;;;;;5.15;39.12;98282.38;4410406;32;20409;-88
2022/01/31 04:30:59;;;;;;;17.85;2.40;;;;;;;5.11;38.95;98292.06;4410357;32;20066;-87
2022/01/31 04:33:26;;;;;;;14.20;2.20;;;;;;;5.19;39.17;98287.38;4410454;32;20172;-87
2022/01/31 04:35:52;;;;;;;14.55;1.95;;;;;;;5.32;38.78;98295.59;4410436;32;20188;-89
2022/01/31 04:38:19;;;;;;;14.93;2.37;;;;;;;5.12;38.92;98296.41;4410433;32;20070;-88
2022/01/31 04:40:45;;;;;;;11.50;2.47;;;;;;;4.93;39.31;98304.13;4396587;32;20112;-90
2022/01/31 04:43:10;;;;;;;11.38;2.25;;;;;;;5.23;38.73;98312.47;4410343;32;20154;-89
2022/01/31 04:45:36;;;;;;;12.80;1.98;;;;;;;5.36;38.26;98311.97;4410438;32;20094;-89
2022/01/31 04:48:01;;;;;;;15.57;2.97;;;;;;;5.24;38.30;98323.78;4396467;32;20130;-89
2022/01/31 04:50:27;;;;;;;14.18;2.50;;;;;;;5.40;37.87;98322.22;4410271;32;20130;-89
2022/01/31 04:52:52;;;;;;;14.45;2.30;;;;;;;5.41;37.81;98328.28;4410206;32;20434;-87
2022/01/31 04:55:18;;;;;;;11.70;2.05;;;;;;;5.36;37.57;98331.09;4410071;32;20121;-89
2022/01/31 04:57:43;;;;;;;15.57;2.50;;;;;;;5.52;37.40;98326.09;4410372;32;20081;-88
2022/01/31 05:00:09;;;;;;;16.12;2.17;;;;;;;5.64;37.11;98319.50;4410053;32;20086;-88
2022/01/31 05:02:35;;;;;;;13.57;2.37;;;;;;;5.60;37.20;98310.97;4410271;32;20146;-89
2022/01/31 05:05:01;;;;;;;18.50;3.22;;;;;;;5.19;38.01;98300.44;4410175;32;20464;-90
2022/01/31 05:07:27;;;;;;;15.95;2.47;;;;;;;5.43;37.61;98282.09;4410143;32;20077;-90
2022/01/31 05:09:52;;;;;;;17.42;2.80;;;;;;;5.55;37.70;98254.59;4410137;32;20109;-89
2022/01/31 05:12:17;;;;;;;15.75;3.30;;;;;;;5.31;38.22;98254.69;4409931;32;20086;-88
2022/01/31 05:14:43;;;;;;;9.30;1.80;;;;;;;5.44;38.17;98250.66;4410062;32;20437;-88
2022/01/31 05:17:08;;;;;;;14.10;2.12;;;;;;;5.02;38.82;98259.38;4396239;32;20169;-88
2022/01/31 05:19:34;;;;;;;13.82;2.62;;;;;;;5.14;38.56;98255.41;4409994;32;20370;-88
2022/01/31 05:22:00;;;;;;;12.02;2.12;;;;;;;5.28;38.53;98260.06;4410046;32;20117;-89
2022/01/31 05:24:26;;;;;;;16.37;2.60;;;;;;;5.29;38.44;98253.91;4408962;32;20232;-87
2022/01/31 05:26:53;;;;;;;10.60;2.00;;;;;;;4.89;39.24;98252.94;4409977;32;20145;-87
2022/01/31 05:29:18;;;;;;;13.93;2.97;;;;;;;5.09;39.04;98246.91;4410099;32;20082;-86
2022/01/31 05:31:44;;;;;;;16.80;2.10;;;;;;;5.00;39.35;98236.84;4409649;32;20128;-86
2022/01/31 05:34:09;;;;;;;12.05;1.98;;;;;;;4.80;39.67;98230.66;4410067;32;20112;-87
2022/01/31 05:36:35;;;;;;;15.50;2.50;;;;;;;4.73;39.99;98227.47;4409986;32;20082;-86
2022/01/31 05:39:01;;;;;;;13.75;2.50;;;;;;;4.88;39.74;98223.38;4409866;32;20104;-87
2022/01/31 05:41:26;;;;;;;19.42;2.40;;;;;;;5.24;39.13;98222.78;4409936;32;20142;-87
2022/01/31 05:43:52;;;;;;;18.48;2.95;;;;;;;5.38;38.73;98219.56;4409839;32;20106;-85
2022/01/31 05:46:17;;;;;;;13.30;2.25;;;;;;;5.32;38.95;98225.06;4409985;32;20445;-87
2022/01/31 05:48:43;;;;;;;11.32;1.95;;;;;;;5.20;38.96;98209.94;4409853;32;20082;-87
2022/01/31 05:51:17;;;;;;;15.18;2.40;;;;;;;5.18;39.19;98196.94;4409741;32;20195;-87
2022/01/31 05:53:43;;;;;;;14.98;2.67;;;;;;;5.13;39.32;98198.88;4409923;32;20175;-87
2022/01/31 05:56:10;;;;;;;15.93;2.33;;;;;;;5.15;39.50;98190.97;4409976;32;20090;-87
2022/01/31 05:58:35;;;;;;;11.90;1.80;;;;;;;5.34;39.11;98198.88;4409806;32;20504;-87
2022/01/31 06:01:00;;;;;;;10.60;2.08;;;;;;;5.20;39.37;98215.16;4409940;32;20117;-87
2022/01/31 06:03:26;;;;;;;16.83;2.75;;;;;;;5.49;38.90;98219.13;4409740;32;20112;-86
2022/01/31 06:05:51;;;;;;;11.80;2.28;;;;;;;5.76;38.54;98224.06;4409100;32;20102;-86
2022/01/31 06:08:17;;;;;;;14.18;2.03;;;;;;;5.81;38.17;98202.00;4409729;32;20082;-86
2022/01/31 06:10:45;;;;;;;13.05;2.25;;;;;;;5.91;38.33;98215.56;4409705;32;20160;-86
2022/01/31 06:13:10;;;;;;;13.80;2.03;;;;;;;5.75;38.54;98225.81;4395835;32;20128;-86
2022/01/31 06:15:36;;;;;;;16.80;2.30;;;;;;;5.53;38.92;98212.84;4409605;32;20074;-86
2022/01/31 06:18:01;;;;;;;14.00;2.10;;;;;;;5.85;38.52;98216.66;4409730;32;20104;-86
2022/01/31 06:20:27;;;;;;;12.13;1.70;;;;;;;5.34;39.64;98206.72;4409662;32;20372;-86
2022/01/31 06:22:53;;;;;;;12.80;1.80;;;;;;;5.58;39.15;98207.41;4409584;32;20136;-86
2022/01/31 06:25:19;;;;;;;13.27;2.55;;;;;;;5.35;39.70;98200.56;4409507;32;20082;-88
2022/01/31 06:27:45;;;;;;;12.02;2.53;;;;;;;5.22;40.06;98203.72;4409605;32;20082;-88
2022/01/31 06:30:10;;;;;;;12.52;2.03;;;;;;;5.24;40.10;98196.66;4409492;32;20082;-88
2022/01/31 06:32:37;;;;;;;13.75;1.75;;;;;;;5.27;40.37;98186.09;4409627;32;20152;-88
2022/01/31 06:35:03;;;;;;;15.07;2.97;;;;;;;5.14;40.28;98182.31;4409597;32;20089;-89
2022/01/31 06:37:29;;;;;;;14.27;2.35;;;;;;;5.30;40.10;98175.50;4409589;32;20113;-88
2022/01/31 06:39:55;;;;;;;14.18;2.62;;;;;;;5.43;39.83;98165.38;4409505;32;20130;-87
2022/01/31 06:42:20;;;;;;;14.63;2.15;;;;;;;5.24;40.11;98165.31;4408673;32;20140;-87
2022/01/31 06:44:45;;;;;;;14.18;2.22;;;;;;;5.23;40.09;98168.84;4409470;32;20089;-87
2022/01/31 06:47:11;;;;;;;13.90;2.00;;;;;;;5.31;40.24;98182.44;4409412;32;20459;-87
2022/01/31 06:49:36;;;;;;;14.68;2.45;;;;;;;5.60;39.60;98193.38;4409309;32;20429;-89
2022/01/31 06:52:03;;;;;;;13.98;2.22;;;;;;;5.82;39.09;98190.66;4409284;32;20082;-87
2022/01/31 06:54:29;;;;;;;18.23;2.47;;;;;;;5.74;39.31;98190.16;4409300;32;20118;-88
2022/01/31 06:56:56;;;;;;;11.82;2.87;;;;;;;5.83;39.14;98184.53;4395411;32;20121;-87
2022/01/31 06:59:22;;;;;;;15.18;2.37;;;;;;;6.05;38.91;98181.81;4395214;32;20448;-87
2022/01/31 07:01:47;;;;;;;12.80;1.92;;;;;;;5.98;39.07;98169.91;4395637;32;20122;-89
2022/01/31 07:04:13;;;;;;;12.30;2.35;;;;;;;6.22;38.65;98167.09;4409421;32;20426;-88
2022/01/31 07:06:38;;;;;;;14.15;2.87;;;;;;;6.12;39.38;98169.28;4408172;32;20137;-85
2022/01/31 07:09:04;;;;;;;14.45;2.10;;;;;;;6.18;39.05;98160.31;4409370;32;20416;-85
2022/01/31 07:11:34;;;;;;;16.17;2.65;;;;;;;5.91;39.58;98166.72;4409162;32;20110;-87
2022/01/31 07:14:03;;;;;;;12.85;2.20;;;;;;;5.72;39.97;98155.41;4409473;32;20086;-83
2022/01/31 07:16:28;;;;;;;11.40;2.05;;;;;;;5.94;39.87;98152.66;4409340;32;20086;-84
2022/01/31 07:19:01;;;;;;;14.38;3.37;;;;;;;6.12;39.21;98144.91;4409229;32;20102;-83
2022/01/31 07:21:34;;;;;;;14.73;2.47;;;;;;;5.98;39.52;98140.31;4408266;32;20106;-84
2022/01/31 07:24:19;;;;;;;16.30;2.30;;;;;;;5.89;39.58;98121.50;4408377;32;20571;-83
2022/01/31 07:26:46;;;;;;;14.13;2.72;;;;;;;5.96;39.26;98126.47;4422082;32;20108;-81
2022/01/31 07:29:12;;;;;;;13.98;2.20;;;;;;;5.57;39.51;98122.97;4424242;32;20098;-81
2022/01/31 07:31:38;;;;;;;12.50;1.83;;;;;;;5.89;38.93;98125.87;4410371;32;20101;-82
2022/01/31 07:34:03;;;;;;;16.15;2.28;;;;;;;5.87;39.23;98122.47;4410541;32;20090;-83
2022/01/31 07:36:29;;;;;;;17.40;2.72;;;;;;;6.08;38.88;98121.53;4424147;32;20179;-82
2022/01/31 07:38:55;;;;;;;14.07;2.10;;;;;;;6.30;38.46;98123.97;4410011;32;20122;-85
2022/01/31 07:41:20;;;;;;;12.75;2.90;;;;;;;6.34;38.41;98116.81;4410000;32;20094;-86
2022/01/31 07:43:46;;;;;;;11.90;2.37;;;;;;;6.49;37.88;98112.63;4407709;32;20126;-85
2022/01/31 07:46:14;;;;;;;16.52;2.70;;;;;;;6.32;37.93;98102.97;4408955;32;20082;-89
2022/01/31 07:48:40;;;;;;;16.33;2.15;;;;;;;6.23;38.05;98101.63;4408995;32;20125;-89
2022/01/31 07:51:08;;;;;;;17.17;2.08;;;;;;;6.07;38.16;98101.53;4408948;32;20087;-88
2022/01/31 07:53:33;;;;;;;;;;;;;;;6.13;38.38;98100.38;4409548;32;20516;-86
2022/01/31 07:56:00;;;;;;;16.40;2.15;;;;;;;6.51;37.87;98102.94;4411012;32;20019;-94
2022/01/31 07:58:26;;;;;;;17.73;2.30;;;;;;;6.39;38.29;98103.50;4410595;32;20457;-90
2022/01/31 08:00:51;;;;;;;17.62;3.85;;;;;;;6.66;37.77;98093.44;4397214;32;20132;-90
2022/01/31 08:03:17;;;;;;;12.43;2.10;;;;;;;6.57;37.72;98088.69;4407632;32;20148;-96
2022/01/31 08:05:42;;;;;;;18.45;2.53;;;;;;;6.75;37.29;98090.38;4414752;32;20074;-96
2022/01/31 08:08:08;;;;;;;14.48;2.50;;;;;;;6.60;37.59;98099.84;4402682;32;20095;-90
2022/01/31 08:10:36;;;;;;;14.87;2.15;;;;;;;6.85;37.16;98106.47;4395626;32;20086;-90
2022/01/31 08:13:04;;;;;;;10.23;2.05;;;;;;;7.27;36.65;98098.19;4395725;32;20156;-91
2022/01/31 08:15:30;;;;;;;15.30;2.72;;;;;;;7.37;36.53;98101.16;4395671;32;20117;-90
2022/01/31 08:17:56;;;;;;;12.90;2.03;;;;;;;7.54;36.28;98095.03;4395337;32;20476;-91
2022/01/31 08:20:21;;;;;;;16.67;2.78;;;;;;;7.67;36.13;98090.00;4395577;32;20114;-91
2022/01/31 08:22:46;;;;;;;14.65;2.35;;;;;;;7.60;36.20;98093.88;4394473;32;20430;-89
2022/01/31 08:25:15;;;;;;;13.77;2.40;;;;;;;7.92;36.04;98083.38;4395604;32;20324;-90
2022/01/31 08:27:47;;;;;;;11.25;2.58;;;;;;;8.17;35.75;98085.50;4395599;32;20478;-90
2022/01/31 08:30:19;;;;;;;10.07;2.15;;;;;;;8.33;35.54;98088.13;4395624;32;20106;-90
2022/01/31 08:32:47;;;;;;;16.42;2.92;;;;;;;8.13;35.75;98089.22;4394554;32;20405;-91
2022/01/31 08:37:57;;;;;;;14.25;2.20;;;;;;;8.44;35.22;98085.75;4395469;32;20152;-90
2022/01/31 08:40:22;;;;;;;12.50;2.55;;;;;;;8.34;35.45;98090.63;4394072;32;20095;-91
2022/01/31 08:42:49;;;;;;;14.55;2.47;;;;;;;8.42;35.18;98077.12;4381529;32;20370;-90
2022/01/31 08:45:14;;;;;;;12.48;2.15;;;;;;;8.38;35.11;98072.94;4381506;32;20067;-91
2022/01/31 08:47:41;;;;;;;17.67;2.62;;;;;;;8.27;35.45;98068.31;4395021;32;20145;-90
2022/01/31 08:50:09;;;;;;;11.95;2.45;;;;;;;8.28;35.56;98068.22;4395274;32;20425;-89
2022/01/31 08:52:34;;;;;;;18.92;3.35;;;;;;;8.00;36.08;98076.81;4395057;32;20087;-90
2022/01/31 08:55:00;;;;;;;11.77;2.42;;;;;;;8.12;35.81;98061.31;4395097;32;20082;-89
2022/01/31 08:57:26;;;;;;;10.77;2.17;;;;;;;7.87;36.74;98057.44;4395081;32;20094;-90
2022/01/31 08:59:52;;;;;;;12.52;2.33;;;;;;;7.99;36.28;98054.12;4394895;32;20453;-90
2022/01/31 09:02:24;;;;;;;16.12;2.78;;;;;;;8.00;36.26;98052.38;4393974;32;20402;-90
2022/01/31 09:04:50;;;;;;;13.27;2.20;;;;;;;8.27;36.08;98047.34;4393501;32;20152;-90
2022/01/31 09:07:20;;;;;;;13.05;2.45;;;;;;;8.26;36.30;98053.50;4394915;32;20091;-90
2022/01/31 09:09:50;;;;;;;12.80;2.40;;;;;;;8.45;36.15;98048.91;4394891;32;20094;-91
2022/01/31 09:12:16;;;;;;;9.88;2.15;;;;;;;8.64;35.51;98045.22;4394815;32;20112;-92
2022/01/31 09:14:43;;;;;;;12.93;2.85;;;;;;;8.76;35.43;98044.50;4393834;32;20113;-90
2022/01/31 09:17:08;;;;;;;11.15;2.67;;;;;;;8.90;35.28;98041.03;4381355;32;20103;-90
2022/01/31 09:19:34;;;;;;;11.65;2.10;;;;;;;9.03;35.12;98042.00;4395012;32;20149;-91
2022/01/31 09:22:01;;;;;;;17.75;2.45;;;;;;;9.09;35.30;98056.56;4393740;32;20094;-90
2022/01/31 09:24:27;;;;;;;12.60;2.30;;;;;;;9.14;35.21;98044.00;4395048;32;20117;-91
2022/01/31 09:26:52;;;;;;;14.63;2.35;;;;;;;9.29;35.08;98047.47;4394920;32;20099;-91
2022/01/31 09:29:18;;;;;;;14.07;2.33;;;;;;;9.39;34.92;98050.37;4394883;32;20140;-91
2022/01/31 09:31:44;;;;;;;11.85;2.45;;;;;;;9.49;34.81;98037.53;4394815;32;20141;-91
2022/01/31 09:34:09;;;;;;;16.60;2.42;;;;;;;9.51;34.34;98028.59;4394870;32;20094;-91
2022/01/31 09:36:35;;;;;;;14.05;3.03;;;;;;;9.60;34.68;98040.28;4395087;32;20075;-92
2022/01/31 09:39:03;;;;;;;16.45;2.58;;;;;;;9.63;34.08;98019.09;4380954;32;20422;-91
2022/01/31 09:41:31;;;;;;;12.02;2.35;;;;;;;9.43;34.65;98020.34;4381097;32;20152;-91
2022/01/31 09:44:20;;;;;;;18.37;3.58;;;;;;;9.38;34.75;98006.63;4393632;32;20098;-90
2022/01/31 09:49:11;;;;;;;18.45;3.83;;;;;;;9.43;35.06;97988.78;4393704;32;20107;-90
2022/01/31 09:51:37;;;;;;;15.13;2.53;;;;;;;9.41;34.79;97982.78;4394614;32;20136;-90
2022/01/31 09:54:03;;;;;;;12.60;2.45;;;;;;;9.21;35.19;97977.00;4394798;32;20082;-90
2022/01/31 09:56:37;;;;;;;11.93;2.72;;;;;;;9.35;35.34;97959.50;4394717;32;20708;-90
2022/01/31 09:59:03;;;;;;;17.23;2.65;;;;;;;9.37;35.32;97968.16;4394703;32;20382;-91
2022/01/31 10:01:31;;;;;;;14.10;2.65;;;;;;;9.42;35.32;97959.00;4394833;32;20079;-90
2022/01/31 10:04:14;;;;;;;13.57;2.45;;;;;;;9.24;35.22;97953.13;4393422;32;20098;-91
2022/01/31 10:06:41;;;;;;;16.48;2.60;;;;;;;9.38;35.04;97941.75;4394774;32;20094;-91
2022/01/31 10:09:06;;;;;;;11.75;2.72;;;;;;;9.45;35.04;97937.81;4394763;32;20094;-91
2022/01/31 10:12:03;;;;;;;15.82;2.67;;;;;;;9.51;34.87;97941.81;4394474;32;20140;-90
2022/01/31 10:17:30;;;;;;;10.20;2.58;;;;;;;8.90;35.51;97937.78;4393583;32;20149;-90
2022/01/31 10:20:00;;;;;;;15.90;2.83;;;;;;;9.25;35.12;97939.06;4394619;32;20098;-91
2022/01/31 10:22:28;;;;;;;14.15;2.42;;;;;;;9.18;35.34;97927.25;4394689;32;20108;-90
2022/01/31 10:24:55;;;;;;;16.67;2.90;;;;;;;9.34;35.37;97918.41;4380781;32;20125;-91
2022/01/31 10:27:28;;;;;;;14.38;2.78;;;;;;;9.17;35.52;97912.41;4380784;32;20098;-91
2022/01/31 10:29:56;;;;;;;13.00;2.53;;;;;;;9.35;35.18;97906.94;4394604;32;20140;-91
2022/01/31 10:32:30;;;;;;;14.55;3.00;;;;;;;9.23;35.42;97891.03;4393096;32;20109;-90
2022/01/31 10:34:59;;;;;;;16.10;3.17;;;;;;;9.28;35.35;97885.47;4394496;32;20079;-91
2022/01/31 10:37:27;;;;;;;17.20;3.10;;;;;;;9.44;35.23;97877.44;4394620;32;20455;-91
2022/01/31 10:53:39;;;;;;;14.35;3.20;;;;;;;9.04;35.56;97853.72;4394351;32;20119;-91
2022/01/31 10:56:05;;;;;;;16.40;3.12;;;;;;;9.28;35.33;97855.72;4394251;32;20082;-91
2022/01/31 10:58:30;;;;;;;18.10;3.03;;;;;;;9.48;35.31;97850.00;4394216;32;20152;-90
2022/01/31 11:01:10;;;;;;;13.10;3.25;;;;;;;9.33;35.58;97838.72;4394065;32;20116;-90
2022/01/31 11:03:36;;;;;;;14.50;2.53;;;;;;;9.49;35.13;97838.53;4393054;32;20082;-90
2022/01/31 11:06:06;;;;;;;11.80;2.62;;;;;;;9.64;34.77;97820.94;4394021;32;20148;-91
2022/01/31 11:08:31;;;;;;;10.63;2.35;;;;;;;9.11;35.84;97828.72;4392954;32;20110;-90
2022/01/31 11:10:58;;;;;;;13.30;2.95;;;;;;;9.42;35.21;97811.78;4380190;32;20166;-90
2022/01/31 11:13:26;;;;;;;17.50;4.07;;;;;;;9.65;34.60;97815.53;4380776;32;20406;-91
2022/01/31 11:15:53;;;;;;;13.52;3.03;;;;;;;9.76;34.78;97812.22;4394151;32;20174;-90
2022/01/31 11:18:20;;;;;;;14.95;2.58;;;;;;;9.82;34.97;97801.28;4393111;32;20458;-90
2022/01/31 11:20:48;;;;;;;11.95;2.75;;;;;;;9.89;34.90;97785.94;4393107;32;20102;-91
2022/01/31 11:23:14;;;;;;;15.80;2.65;;;;;;;10.01;34.74;97768.47;4393035;32;20373;-90
2022/01/31 11:25:41;;;;;;;13.48;2.45;;;;;;;9.88;34.24;97767.63;4392951;32;20116;-90
2022/01/31 11:28:10;;;;;;;14.65;2.78;;;;;;;10.14;33.94;97755.28;4394274;32;20091;-90
2022/01/31 11:30:35;;;;;;;13.57;2.62;;;;;;;10.15;33.93;97762.25;4394799;32;20135;-91
2022/01/31 11:33:02;;;;;;;12.60;2.58;;;;;;;10.27;33.83;97750.03;4396067;32;20442;-90
2022/01/31 11:35:28;;;;;;;14.52;2.75;;;;;;;10.13;33.39;97751.00;4395878;32;20152;-91
2022/01/31 11:37:53;;;;;;;14.07;2.40;;;;;;;10.41;33.18;97734.97;4381985;32;20477;-90
2022/01/31 11:40:21;;;;;;;14.13;2.08;;;;;;;10.11;32.92;97730.03;4395721;32;20154;-91
2022/01/31 11:42:48;;;;;;;13.03;2.10;;;;;;;9.90;33.50;97736.78;4395593;32;20102;-90
2022/01/31 11:45:29;;;;;;;12.18;2.42;;;;;;;10.07;33.26;97733.00;4394479;32;20159;-89
2022/01/31 11:47:57;;;;;;;15.85;2.62;;;;;;;10.15;33.46;97728.03;4382048;32;20107;-91
2022/01/31 11:50:24;;;;;;;13.90;2.45;;;;;;;10.13;33.14;97733.41;4395501;32;20125;-91
2022/01/31 11:53:00;;;;;;;11.50;2.55;;;;;;;10.22;33.63;97713.50;4395424;32;20094;-90
2022/01/31 11:55:32;;;;;;;14.45;2.40;;;;;;;10.36;33.47;97702.84;4395599;32;20082;-91
2022/01/31 11:57:58;;;;;;;13.55;2.72;;;;;;;10.43;33.06;97679.59;4395572;32;20742;-91